sensor_id;sensor_type;location;lat;lon;timestamp;P1;durP1;ratioP1;P2;durP2;ratioP2
28772;SDS011;15925;51.222;5.678;2023-03-03T00:02:19;29.55;;;10.07;;
28772;SDS011;15925;51.222;5.678;2023-03-03T00:04:44;25.33;;;9.13;;
28772;SDS011;15925;51.222;5.678;2023-03-03T00:07:10;36.30;;;13.17;;
28772;SDS011;15925;51.222;5.678;2023-03-03T00:09:36;20.73;;;9.55;;
28772;SDS011;15925;51.222;5.678;2023-03-03T00:12:05;24.67;;;9.13;;
28772;SDS011;15925;51.222;5.678;2023-03-03T00:14:58;19.65;;;7.68;;
28772;SDS011;15925;51.222;5.678;2023-03-03T00:17:28;27.00;;;9.30;;
28772;SDS011;15925;51.222;5.678;2023-03-03T00:19:56;24.83;;;9.38;;
28772;SDS011;15925;51.222;5.678;2023-03-03T00:22:26;23.90;;;8.47;;
28772;SDS011;15925;51.222;5.678;2023-03-03T00:24:54;26.05;;;9.57;;
28772;SDS011;15925;51.222;5.678;2023-03-03T00:27:30;29.67;;;8.35;;
28772;SDS011;15925;51.222;5.678;2023-03-03T00:30:05;24.48;;;11.52;;
28772;SDS011;15925;51.222;5.678;2023-03-03T00:32:48;24.60;;;9.02;;
28772;SDS011;15925;51.222;5.678;2023-03-03T00:38:09;26.85;;;8.48;;
28772;SDS011;15925;51.222;5.678;2023-03-03T00:40:39;30.55;;;10.35;;
28772;SDS011;15925;51.222;5.678;2023-03-03T00:43:17;29.48;;;8.77;;
28772;SDS011;15925;51.222;5.678;2023-03-03T00:45:49;42.10;;;9.85;;
28772;SDS011;15925;51.222;5.678;2023-03-03T00:50:45;21.67;;;8.15;;
28772;SDS011;15925;51.222;5.678;2023-03-03T00:53:15;29.30;;;9.93;;
28772;SDS011;15925;51.222;5.678;2023-03-03T00:55:42;34.25;;;10.02;;
28772;SDS011;15925;51.222;5.678;2023-03-03T00:58:09;30.45;;;10.23;;
28772;SDS011;15925;51.222;5.678;2023-03-03T01:00:40;27.13;;;8.95;;
28772;SDS011;15925;51.222;5.678;2023-03-03T01:03:13;26.13;;;8.98;;
28772;SDS011;15925;51.222;5.678;2023-03-03T01:05:41;26.42;;;9.98;;
28772;SDS011;15925;51.222;5.678;2023-03-03T01:08:07;34.10;;;11.38;;
28772;SDS011;15925;51.222;5.678;2023-03-03T01:10:34;26.27;;;10.63;;
28772;SDS011;15925;51.222;5.678;2023-03-03T01:13:04;34.95;;;10.43;;
28772;SDS011;15925;51.222;5.678;2023-03-03T01:15:31;22.38;;;9.73;;
28772;SDS011;15925;51.222;5.678;2023-03-03T01:17:58;33.97;;;11.02;;
28772;SDS011;15925;51.222;5.678;2023-03-03T01:20:24;33.58;;;11.32;;
28772;SDS011;15925;51.222;5.678;2023-03-03T01:22:49;30.38;;;10.63;;
28772;SDS011;15925;51.222;5.678;2023-03-03T01:25:15;37.37;;;11.77;;
28772;SDS011;15925;51.222;5.678;2023-03-03T01:27:44;32.65;;;12.38;;
28772;SDS011;15925;51.222;5.678;2023-03-03T01:30:10;31.35;;;11.82;;
28772;SDS011;15925;51.222;5.678;2023-03-03T01:32:37;34.15;;;11.55;;
28772;SDS011;15925;51.222;5.678;2023-03-03T01:35:03;49.63;;;11.23;;
28772;SDS011;15925;51.222;5.678;2023-03-03T01:37:30;66.93;;;14.00;;
28772;SDS011;15925;51.222;5.678;2023-03-03T01:39:55;38.87;;;11.33;;
28772;SDS011;15925;51.222;5.678;2023-03-03T01:42:21;26.33;;;11.50;;
28772;SDS011;15925;51.222;5.678;2023-03-03T01:44:48;41.58;;;13.10;;
28772;SDS011;15925;51.222;5.678;2023-03-03T01:47:20;26.27;;;10.53;;
28772;SDS011;15925;51.222;5.678;2023-03-03T01:52:31;25.92;;;9.20;;
28772;SDS011;15925;51.222;5.678;2023-03-03T01:55:04;32.42;;;11.32;;
28772;SDS011;15925;51.222;5.678;2023-03-03T01:57:37;34.72;;;10.85;;
28772;SDS011;15925;51.222;5.678;2023-03-03T02:00:07;41.53;;;10.75;;
28772;SDS011;15925;51.222;5.678;2023-03-03T02:02:43;23.55;;;10.20;;
28772;SDS011;15925;51.222;5.678;2023-03-03T02:05:10;26.30;;;10.48;;
28772;SDS011;15925;51.222;5.678;2023-03-03T02:07:38;30.85;;;10.25;;
28772;SDS011;15925;51.222;5.678;2023-03-03T02:10:05;21.83;;;9.43;;
28772;SDS011;15925;51.222;5.678;2023-03-03T02:12:41;31.67;;;10.38;;
28772;SDS011;15925;51.222;5.678;2023-03-03T02:20:30;26.40;;;8.18;;
28772;SDS011;15925;51.222;5.678;2023-03-03T02:26:07;27.95;;;9.02;;
28772;SDS011;15925;51.222;5.678;2023-03-03T02:28:38;37.55;;;11.27;;
28772;SDS011;15925;51.222;5.678;2023-03-03T02:31:08;39.55;;;10.32;;
28772;SDS011;15925;51.222;5.678;2023-03-03T02:33:41;32.63;;;9.77;;
28772;SDS011;15925;51.222;5.678;2023-03-03T02:36:13;32.40;;;10.07;;
28772;SDS011;15925;51.222;5.678;2023-03-03T02:44:32;35.42;;;9.77;;
28772;SDS011;15925;51.222;5.678;2023-03-03T02:46:58;26.48;;;9.25;;
28772;SDS011;15925;51.222;5.678;2023-03-03T02:49:26;30.25;;;8.68;;
28772;SDS011;15925;51.222;5.678;2023-03-03T02:51:55;35.25;;;8.07;;
28772;SDS011;15925;51.222;5.678;2023-03-03T02:54:23;39.60;;;9.05;;
28772;SDS011;15925;51.222;5.678;2023-03-03T02:56:50;41.63;;;11.75;;
28772;SDS011;15925;51.222;5.678;2023-03-03T02:59:16;21.48;;;10.00;;
28772;SDS011;15925;51.222;5.678;2023-03-03T03:07:04;27.42;;;8.77;;
28772;SDS011;15925;51.222;5.678;2023-03-03T03:09:33;38.00;;;11.02;;
28772;SDS011;15925;51.222;5.678;2023-03-03T03:11:59;42.33;;;12.00;;
28772;SDS011;15925;51.222;5.678;2023-03-03T03:14:27;30.95;;;10.88;;
28772;SDS011;15925;51.222;5.678;2023-03-03T03:16:54;27.13;;;8.80;;
28772;SDS011;15925;51.222;5.678;2023-03-03T03:19:19;44.47;;;11.93;;
28772;SDS011;15925;51.222;5.678;2023-03-03T03:21:46;43.35;;;9.13;;
28772;SDS011;15925;51.222;5.678;2023-03-03T03:24:11;32.33;;;11.10;;
28772;SDS011;15925;51.222;5.678;2023-03-03T03:26:42;36.53;;;8.60;;
28772;SDS011;15925;51.222;5.678;2023-03-03T03:29:08;20.58;;;7.78;;
28772;SDS011;15925;51.222;5.678;2023-03-03T03:31:35;22.70;;;8.25;;
28772;SDS011;15925;51.222;5.678;2023-03-03T03:34:02;34.05;;;8.63;;
28772;SDS011;15925;51.222;5.678;2023-03-03T03:36:29;24.13;;;6.78;;
28772;SDS011;15925;51.222;5.678;2023-03-03T03:38:55;33.75;;;11.77;;
28772;SDS011;15925;51.222;5.678;2023-03-03T03:41:21;51.03;;;11.90;;
28772;SDS011;15925;51.222;5.678;2023-03-03T03:43:46;40.17;;;6.87;;
28772;SDS011;15925;51.222;5.678;2023-03-03T03:46:13;30.15;;;9.68;;
28772;SDS011;15925;51.222;5.678;2023-03-03T03:48:41;39.25;;;10.65;;
28772;SDS011;15925;51.222;5.678;2023-03-03T03:51:10;36.80;;;8.75;;
28772;SDS011;15925;51.222;5.678;2023-03-03T03:53:38;28.50;;;9.00;;
28772;SDS011;15925;51.222;5.678;2023-03-03T03:56:04;46.22;;;8.15;;
28772;SDS011;15925;51.222;5.678;2023-03-03T03:58:30;30.50;;;7.60;;
28772;SDS011;15925;51.222;5.678;2023-03-03T04:01:01;24.17;;;9.50;;
28772;SDS011;15925;51.222;5.678;2023-03-03T04:03:34;25.90;;;8.27;;
28772;SDS011;15925;51.222;5.678;2023-03-03T04:06:04;38.92;;;9.48;;
28772;SDS011;15925;51.222;5.678;2023-03-03T04:08:30;33.30;;;9.82;;
28772;SDS011;15925;51.222;5.678;2023-03-03T04:10:56;32.58;;;8.25;;
28772;SDS011;15925;51.222;5.678;2023-03-03T04:13:23;18.13;;;6.75;;
28772;SDS011;15925;51.222;5.678;2023-03-03T04:15:53;46.40;;;9.15;;
28772;SDS011;15925;51.222;5.678;2023-03-03T04:20:45;23.88;;;9.73;;
28772;SDS011;15925;51.222;5.678;2023-03-03T04:23:11;24.88;;;7.43;;
28772;SDS011;15925;51.222;5.678;2023-03-03T04:25:37;36.17;;;7.72;;
28772;SDS011;15925;51.222;5.678;2023-03-03T04:28:11;29.67;;;9.57;;
28772;SDS011;15925;51.222;5.678;2023-03-03T04:30:39;33.83;;;7.10;;
28772;SDS011;15925;51.222;5.678;2023-03-03T04:33:05;33.45;;;10.05;;
28772;SDS011;15925;51.222;5.678;2023-03-03T04:35:31;19.20;;;7.95;;
28772;SDS011;15925;51.222;5.678;2023-03-03T04:37:57;43.23;;;11.83;;
28772;SDS011;15925;51.222;5.678;2023-03-03T04:40:23;31.55;;;8.75;;
28772;SDS011;15925;51.222;5.678;2023-03-03T04:42:50;29.92;;;8.98;;
28772;SDS011;15925;51.222;5.678;2023-03-03T04:45:16;31.05;;;8.10;;
28772;SDS011;15925;51.222;5.678;2023-03-03T04:47:43;47.65;;;10.98;;
28772;SDS011;15925;51.222;5.678;2023-03-03T04:50:09;42.60;;;10.43;;
28772;SDS011;15925;51.222;5.678;2023-03-03T04:52:35;26.17;;;9.77;;
28772;SDS011;15925;51.222;5.678;2023-03-03T04:55:03;41.90;;;9.35;;
28772;SDS011;15925;51.222;5.678;2023-03-03T04:57:30;27.35;;;8.95;;
28772;SDS011;15925;51.222;5.678;2023-03-03T05:02:22;27.88;;;9.20;;
28772;SDS011;15925;51.222;5.678;2023-03-03T05:04:48;17.02;;;6.18;;
28772;SDS011;15925;51.222;5.678;2023-03-03T05:07:15;27.73;;;8.55;;
28772;SDS011;15925;51.222;5.678;2023-03-03T05:09:43;26.88;;;7.43;;
28772;SDS011;15925;51.222;5.678;2023-03-03T05:12:10;32.92;;;9.73;;
28772;SDS011;15925;51.222;5.678;2023-03-03T05:14:36;23.52;;;7.72;;
28772;SDS011;15925;51.222;5.678;2023-03-03T05:17:02;19.00;;;7.65;;
28772;SDS011;15925;51.222;5.678;2023-03-03T05:19:28;28.33;;;9.05;;
28772;SDS011;15925;51.222;5.678;2023-03-03T05:21:54;43.70;;;12.27;;
28772;SDS011;15925;51.222;5.678;2023-03-03T05:24:21;29.10;;;9.32;;
28772;SDS011;15925;51.222;5.678;2023-03-03T05:26:48;20.00;;;7.50;;
28772;SDS011;15925;51.222;5.678;2023-03-03T05:29:13;37.20;;;8.90;;
28772;SDS011;15925;51.222;5.678;2023-03-03T05:31:39;20.03;;;7.70;;
28772;SDS011;15925;51.222;5.678;2023-03-03T05:34:05;25.23;;;9.43;;
28772;SDS011;15925;51.222;5.678;2023-03-03T05:36:30;24.37;;;10.00;;
28772;SDS011;15925;51.222;5.678;2023-03-03T05:38:56;13.68;;;5.88;;
28772;SDS011;15925;51.222;5.678;2023-03-03T05:41:22;17.05;;;7.88;;
28772;SDS011;15925;51.222;5.678;2023-03-03T05:43:48;21.85;;;10.48;;
28772;SDS011;15925;51.222;5.678;2023-03-03T05:46:14;20.40;;;9.38;;
28772;SDS011;15925;51.222;5.678;2023-03-03T05:48:40;23.08;;;8.90;;
28772;SDS011;15925;51.222;5.678;2023-03-03T05:51:06;31.77;;;11.10;;
28772;SDS011;15925;51.222;5.678;2023-03-03T05:53:32;37.15;;;11.30;;
28772;SDS011;15925;51.222;5.678;2023-03-03T05:55:58;29.48;;;8.82;;
28772;SDS011;15925;51.222;5.678;2023-03-03T05:58:24;23.23;;;8.60;;
28772;SDS011;15925;51.222;5.678;2023-03-03T06:00:50;28.15;;;8.38;;
28772;SDS011;15925;51.222;5.678;2023-03-03T06:03:16;18.10;;;8.38;;
28772;SDS011;15925;51.222;5.678;2023-03-03T06:05:42;21.15;;;7.95;;
28772;SDS011;15925;51.222;5.678;2023-03-03T06:08:08;29.00;;;8.65;;
28772;SDS011;15925;51.222;5.678;2023-03-03T06:10:34;24.98;;;7.82;;
28772;SDS011;15925;51.222;5.678;2023-03-03T06:13:03;24.20;;;7.90;;
28772;SDS011;15925;51.222;5.678;2023-03-03T06:15:29;22.05;;;8.43;;
28772;SDS011;15925;51.222;5.678;2023-03-03T06:17:54;33.57;;;8.80;;
28772;SDS011;15925;51.222;5.678;2023-03-03T06:20:20;25.40;;;11.07;;
28772;SDS011;15925;51.222;5.678;2023-03-03T06:22:46;28.77;;;9.38;;
28772;SDS011;15925;51.222;5.678;2023-03-03T06:25:12;30.35;;;8.02;;
28772;SDS011;15925;51.222;5.678;2023-03-03T06:27:38;29.65;;;8.82;;
28772;SDS011;15925;51.222;5.678;2023-03-03T06:30:04;16.20;;;7.43;;
28772;SDS011;15925;51.222;5.678;2023-03-03T06:32:31;19.20;;;7.82;;
28772;SDS011;15925;51.222;5.678;2023-03-03T06:34:56;20.98;;;8.63;;
28772;SDS011;15925;51.222;5.678;2023-03-03T06:37:22;13.97;;;6.63;;
28772;SDS011;15925;51.222;5.678;2023-03-03T06:39:48;21.48;;;7.35;;
28772;SDS011;15925;51.222;5.678;2023-03-03T06:42:16;14.18;;;5.63;;
28772;SDS011;15925;51.222;5.678;2023-03-03T06:44:43;18.70;;;7.90;;
28772;SDS011;15925;51.222;5.678;2023-03-03T06:47:08;24.42;;;9.63;;
28772;SDS011;15925;51.222;5.678;2023-03-03T06:49:34;13.63;;;5.18;;
28772;SDS011;15925;51.222;5.678;2023-03-03T06:52:00;14.60;;;6.60;;
28772;SDS011;15925;51.222;5.678;2023-03-03T06:54:34;22.80;;;8.77;;
28772;SDS011;15925;51.222;5.678;2023-03-03T06:57:00;25.30;;;7.85;;
28772;SDS011;15925;51.222;5.678;2023-03-03T06:59:40;28.63;;;8.45;;
28772;SDS011;15925;51.222;5.678;2023-03-03T07:02:11;15.93;;;7.15;;
28772;SDS011;15925;51.222;5.678;2023-03-03T07:04:41;21.50;;;8.63;;
28772;SDS011;15925;51.222;5.678;2023-03-03T07:07:16;20.77;;;8.32;;
28772;SDS011;15925;51.222;5.678;2023-03-03T07:09:45;22.20;;;7.63;;
28772;SDS011;15925;51.222;5.678;2023-03-03T07:12:14;19.85;;;8.18;;
28772;SDS011;15925;51.222;5.678;2023-03-03T07:14:44;45.72;;;11.75;;
28772;SDS011;15925;51.222;5.678;2023-03-03T07:17:14;23.83;;;7.72;;
28772;SDS011;15925;51.222;5.678;2023-03-03T07:19:44;27.52;;;8.38;;
28772;SDS011;15925;51.222;5.678;2023-03-03T07:22:18;22.45;;;6.57;;
28772;SDS011;15925;51.222;5.678;2023-03-03T07:24:46;24.15;;;6.22;;
28772;SDS011;15925;51.222;5.678;2023-03-03T07:27:32;25.08;;;9.05;;
28772;SDS011;15925;51.222;5.678;2023-03-03T07:30:22;20.00;;;8.68;;
28772;SDS011;15925;51.222;5.678;2023-03-03T07:32:54;18.30;;;6.63;;
28772;SDS011;15925;51.222;5.678;2023-03-03T07:35:33;18.15;;;7.18;;
28772;SDS011;15925;51.222;5.678;2023-03-03T07:38:09;14.48;;;6.57;;
28772;SDS011;15925;51.222;5.678;2023-03-03T07:40:47;23.65;;;8.98;;
28772;SDS011;15925;51.222;5.678;2023-03-03T07:52:01;22.38;;;8.52;;
28772;SDS011;15925;51.222;5.678;2023-03-03T07:54:42;17.45;;;6.18;;
28772;SDS011;15925;51.222;5.678;2023-03-03T07:59:37;17.17;;;7.28;;
28772;SDS011;15925;51.222;5.678;2023-03-03T08:02:09;18.67;;;6.50;;
28772;SDS011;15925;51.222;5.678;2023-03-03T08:05:01;27.08;;;7.88;;
28772;SDS011;15925;51.222;5.678;2023-03-03T08:07:48;16.58;;;7.00;;
28772;SDS011;15925;51.222;5.678;2023-03-03T08:11:15;20.38;;;6.35;;
28772;SDS011;15925;51.222;5.678;2023-03-03T08:15:42;25.70;;;8.70;;
28772;SDS011;15925;51.222;5.678;2023-03-03T08:18:28;16.48;;;8.05;;
28772;SDS011;15925;51.222;5.678;2023-03-03T08:21:00;29.75;;;7.35;;
28772;SDS011;15925;51.222;5.678;2023-03-03T08:23:32;23.63;;;9.23;;
28772;SDS011;15925;51.222;5.678;2023-03-03T08:25:57;27.27;;;9.27;;
28772;SDS011;15925;51.222;5.678;2023-03-03T08:28:23;20.02;;;6.47;;
28772;SDS011;15925;51.222;5.678;2023-03-03T08:30:49;24.37;;;8.80;;
28772;SDS011;15925;51.222;5.678;2023-03-03T08:33:15;32.50;;;9.35;;
28772;SDS011;15925;51.222;5.678;2023-03-03T08:35:42;26.75;;;8.57;;
28772;SDS011;15925;51.222;5.678;2023-03-03T08:38:08;18.98;;;7.85;;
28772;SDS011;15925;51.222;5.678;2023-03-03T08:40:36;29.77;;;9.32;;
28772;SDS011;15925;51.222;5.678;2023-03-03T08:43:02;18.42;;;6.78;;
28772;SDS011;15925;51.222;5.678;2023-03-03T08:45:28;22.13;;;7.82;;
28772;SDS011;15925;51.222;5.678;2023-03-03T08:50:21;17.02;;;6.38;;
28772;SDS011;15925;51.222;5.678;2023-03-03T08:52:47;26.55;;;7.53;;
28772;SDS011;15925;51.222;5.678;2023-03-03T08:55:13;17.23;;;7.80;;
28772;SDS011;15925;51.222;5.678;2023-03-03T08:57:39;23.50;;;8.35;;
28772;SDS011;15925;51.222;5.678;2023-03-03T09:00:09;22.25;;;6.90;;
28772;SDS011;15925;51.222;5.678;2023-03-03T09:02:37;19.02;;;5.90;;
28772;SDS011;15925;51.222;5.678;2023-03-03T09:05:04;24.77;;;6.78;;
28772;SDS011;15925;51.222;5.678;2023-03-03T09:07:30;19.40;;;7.22;;
28772;SDS011;15925;51.222;5.678;2023-03-03T09:09:56;19.30;;;7.50;;
28772;SDS011;15925;51.222;5.678;2023-03-03T09:14:52;16.98;;;7.13;;
28772;SDS011;15925;51.222;5.678;2023-03-03T09:17:29;18.40;;;6.85;;
28772;SDS011;15925;51.222;5.678;2023-03-03T09:20:03;23.77;;;8.02;;
28772;SDS011;15925;51.222;5.678;2023-03-03T09:22:47;17.90;;;5.88;;
28772;SDS011;15925;51.222;5.678;2023-03-03T09:25:33;22.35;;;7.50;;
28772;SDS011;15925;51.222;5.678;2023-03-03T09:28:02;21.00;;;6.97;;
28772;SDS011;15925;51.222;5.678;2023-03-03T09:30:35;22.77;;;7.20;;
28772;SDS011;15925;51.222;5.678;2023-03-03T09:38:54;27.10;;;6.70;;
28772;SDS011;15925;51.222;5.678;2023-03-03T09:41:29;32.78;;;9.35;;
28772;SDS011;15925;51.222;5.678;2023-03-03T09:47:26;18.90;;;4.78;;
28772;SDS011;15925;51.222;5.678;2023-03-03T09:53:15;20.73;;;5.80;;
28772;SDS011;15925;51.222;5.678;2023-03-03T09:56:14;27.83;;;7.35;;
28772;SDS011;15925;51.222;5.678;2023-03-03T10:07:26;19.13;;;6.43;;
28772;SDS011;15925;51.222;5.678;2023-03-03T10:10:11;21.08;;;7.25;;
28772;SDS011;15925;51.222;5.678;2023-03-03T10:13:07;17.10;;;6.72;;
28772;SDS011;15925;51.222;5.678;2023-03-03T10:21:04;27.15;;;7.40;;
28772;SDS011;15925;51.222;5.678;2023-03-03T10:40:07;19.23;;;6.25;;
28772;SDS011;15925;51.222;5.678;2023-03-03T10:53:30;20.35;;;6.15;;
28772;SDS011;15925;51.222;5.678;2023-03-03T11:01:44;26.38;;;7.15;;
28772;SDS011;15925;51.222;5.678;2023-03-03T11:04:49;23.50;;;6.22;;
28772;SDS011;15925;51.222;5.678;2023-03-03T11:07:34;22.85;;;6.35;;
28772;SDS011;15925;51.222;5.678;2023-03-03T11:10:12;19.58;;;6.65;;
28772;SDS011;15925;51.222;5.678;2023-03-03T11:13:06;25.27;;;5.65;;
28772;SDS011;15925;51.222;5.678;2023-03-03T11:18:29;22.58;;;7.05;;
28772;SDS011;15925;51.222;5.678;2023-03-03T11:21:19;16.35;;;5.80;;
28772;SDS011;15925;51.222;5.678;2023-03-03T11:26:56;16.50;;;6.80;;
28772;SDS011;15925;51.222;5.678;2023-03-03T11:32:51;16.63;;;5.80;;
28772;SDS011;15925;51.222;5.678;2023-03-03T11:35:40;20.42;;;7.60;;
28772;SDS011;15925;51.222;5.678;2023-03-03T11:40:56;22.15;;;7.57;;
28772;SDS011;15925;51.222;5.678;2023-03-03T11:43:39;25.33;;;6.72;;
28772;SDS011;15925;51.222;5.678;2023-03-03T11:46:17;24.38;;;6.25;;
28772;SDS011;15925;51.222;5.678;2023-03-03T11:49:08;19.20;;;5.00;;
28772;SDS011;15925;51.222;5.678;2023-03-03T11:54:41;22.75;;;6.68;;
28772;SDS011;15925;51.222;5.678;2023-03-03T11:57:18;30.20;;;9.18;;
28772;SDS011;15925;51.222;5.678;2023-03-03T11:59:55;26.85;;;7.93;;
28772;SDS011;15925;51.222;5.678;2023-03-03T12:02:44;22.48;;;7.95;;
28772;SDS011;15925;51.222;5.678;2023-03-03T12:05:41;24.08;;;7.70;;
28772;SDS011;15925;51.222;5.678;2023-03-03T12:08:22;20.90;;;7.30;;
28772;SDS011;15925;51.222;5.678;2023-03-03T12:11:25;31.63;;;7.60;;
28772;SDS011;15925;51.222;5.678;2023-03-03T12:16:52;14.40;;;5.47;;
28772;SDS011;15925;51.222;5.678;2023-03-03T12:22:15;19.20;;;6.63;;
28772;SDS011;15925;51.222;5.678;2023-03-03T12:28:21;25.45;;;6.45;;
28772;SDS011;15925;51.222;5.678;2023-03-03T12:33:21;19.08;;;6.28;;
28772;SDS011;15925;51.222;5.678;2023-03-03T12:41:44;13.15;;;5.50;;
28772;SDS011;15925;51.222;5.678;2023-03-03T12:47:05;20.83;;;6.93;;
28772;SDS011;15925;51.222;5.678;2023-03-03T12:52:22;29.08;;;7.88;;
28772;SDS011;15925;51.222;5.678;2023-03-03T12:55:13;19.80;;;8.25;;
28772;SDS011;15925;51.222;5.678;2023-03-03T12:57:54;35.05;;;6.63;;
28772;SDS011;15925;51.222;5.678;2023-03-03T13:00:42;21.63;;;5.50;;
28772;SDS011;15925;51.222;5.678;2023-03-03T13:06:11;18.63;;;5.45;;
28772;SDS011;15925;51.222;5.678;2023-03-03T13:14:14;22.13;;;9.23;;
28772;SDS011;15925;51.222;5.678;2023-03-03T13:17:14;15.02;;;5.55;;
28772;SDS011;15925;51.222;5.678;2023-03-03T13:19:43;14.90;;;4.97;;
28772;SDS011;15925;51.222;5.678;2023-03-03T13:22:23;16.83;;;6.13;;
28772;SDS011;15925;51.222;5.678;2023-03-03T13:31:23;18.05;;;5.93;;
28772;SDS011;15925;51.222;5.678;2023-03-03T13:33:54;23.42;;;6.00;;
28772;SDS011;15925;51.222;5.678;2023-03-03T13:36:27;19.50;;;4.85;;
28772;SDS011;15925;51.222;5.678;2023-03-03T13:39:11;24.95;;;7.82;;
28772;SDS011;15925;51.222;5.678;2023-03-03T13:41:46;16.00;;;6.07;;
28772;SDS011;15925;51.222;5.678;2023-03-03T13:44:42;14.07;;;5.63;;
28772;SDS011;15925;51.222;5.678;2023-03-03T13:49:59;20.75;;;5.97;;
28772;SDS011;15925;51.222;5.678;2023-03-03T13:52:28;21.10;;;7.53;;
28772;SDS011;15925;51.222;5.678;2023-03-03T13:55:07;22.83;;;6.47;;
28772;SDS011;15925;51.222;5.678;2023-03-03T14:06:04;20.50;;;7.75;;
28772;SDS011;15925;51.222;5.678;2023-03-03T14:17:04;29.00;;;8.75;;
28772;SDS011;15925;51.222;5.678;2023-03-03T14:19:41;16.50;;;5.38;;
28772;SDS011;15925;51.222;5.678;2023-03-03T14:25:17;14.65;;;5.47;;
28772;SDS011;15925;51.222;5.678;2023-03-03T14:35:33;23.08;;;4.90;;
28772;SDS011;15925;51.222;5.678;2023-03-03T14:38:09;22.30;;;4.70;;
28772;SDS011;15925;51.222;5.678;2023-03-03T14:40:40;12.05;;;4.93;;
28772;SDS011;15925;51.222;5.678;2023-03-03T14:49:01;12.30;;;4.47;;
28772;SDS011;15925;51.222;5.678;2023-03-03T14:51:43;13.40;;;5.18;;
28772;SDS011;15925;51.222;5.678;2023-03-03T14:59:40;13.52;;;5.28;;
28772;SDS011;15925;51.222;5.678;2023-03-03T15:02:29;13.10;;;4.43;;
28772;SDS011;15925;51.222;5.678;2023-03-03T15:05:12;9.27;;;4.00;;
28772;SDS011;15925;51.222;5.678;2023-03-03T15:07:42;13.98;;;4.40;;
28772;SDS011;15925;51.222;5.678;2023-03-03T15:10:09;13.13;;;3.88;;
28772;SDS011;15925;51.222;5.678;2023-03-03T15:12:38;11.35;;;3.25;;
28772;SDS011;15925;51.222;5.678;2023-03-03T15:23:57;14.75;;;4.95;;
28772;SDS011;15925;51.222;5.678;2023-03-03T15:29:31;12.35;;;3.33;;
28772;SDS011;15925;51.222;5.678;2023-03-03T15:42:56;14.02;;;3.85;;
28772;SDS011;15925;51.222;5.678;2023-03-03T15:48:18;14.77;;;5.75;;
28772;SDS011;15925;51.222;5.678;2023-03-03T15:51:37;9.13;;;4.43;;
28772;SDS011;15925;51.222;5.678;2023-03-03T15:56:58;18.42;;;4.63;;
28772;SDS011;15925;51.222;5.678;2023-03-03T16:08:26;15.52;;;4.38;;
28772;SDS011;15925;51.222;5.678;2023-03-03T16:11:12;10.50;;;4.60;;
28772;SDS011;15925;51.222;5.678;2023-03-03T16:22:39;10.50;;;4.53;;
28772;SDS011;15925;51.222;5.678;2023-03-03T16:25:27;15.55;;;4.30;;
28772;SDS011;15925;51.222;5.678;2023-03-03T16:33:10;19.35;;;5.68;;
28772;SDS011;15925;51.222;5.678;2023-03-03T16:35:55;11.45;;;4.07;;
28772;SDS011;15925;51.222;5.678;2023-03-03T16:38:37;9.80;;;4.22;;
28772;SDS011;15925;51.222;5.678;2023-03-03T16:41:09;12.68;;;3.72;;
28772;SDS011;15925;51.222;5.678;2023-03-03T16:46:33;10.48;;;4.88;;
28772;SDS011;15925;51.222;5.678;2023-03-03T16:52:14;16.05;;;3.60;;
28772;SDS011;15925;51.222;5.678;2023-03-03T16:54:46;7.63;;;3.35;;
28772;SDS011;15925;51.222;5.678;2023-03-03T16:59:51;14.55;;;4.75;;
28772;SDS011;15925;51.222;5.678;2023-03-03T17:05:38;11.93;;;4.88;;
28772;SDS011;15925;51.222;5.678;2023-03-03T17:11:15;11.30;;;4.05;;
28772;SDS011;15925;51.222;5.678;2023-03-03T17:14:06;8.45;;;4.00;;
28772;SDS011;15925;51.222;5.678;2023-03-03T17:16:55;8.50;;;3.63;;
28772;SDS011;15925;51.222;5.678;2023-03-03T17:25:01;6.13;;;2.85;;
28772;SDS011;15925;51.222;5.678;2023-03-03T17:28:16;10.75;;;2.42;;
28772;SDS011;15925;51.222;5.678;2023-03-03T17:44:32;12.65;;;3.55;;
28772;SDS011;15925;51.222;5.678;2023-03-03T17:47:11;8.57;;;4.03;;
28772;SDS011;15925;51.222;5.678;2023-03-03T18:01:12;9.73;;;3.42;;
28772;SDS011;15925;51.222;5.678;2023-03-03T18:20:52;13.45;;;4.97;;
28772;SDS011;15925;51.222;5.678;2023-03-03T18:23:40;11.40;;;4.15;;
28772;SDS011;15925;51.222;5.678;2023-03-03T18:29:12;8.90;;;3.47;;
28772;SDS011;15925;51.222;5.678;2023-03-03T18:55:38;19.17;;;5.40;;
28772;SDS011;15925;51.222;5.678;2023-03-03T19:00:41;13.45;;;4.95;;
28772;SDS011;15925;51.222;5.678;2023-03-03T19:06:11;25.80;;;5.85;;
28772;SDS011;15925;51.222;5.678;2023-03-03T19:09:19;14.50;;;4.65;;
28772;SDS011;15925;51.222;5.678;2023-03-03T19:12:49;14.85;;;5.47;;
28772;SDS011;15925;51.222;5.678;2023-03-03T19:20:57;13.50;;;4.90;;
28772;SDS011;15925;51.222;5.678;2023-03-03T19:23:47;10.05;;;4.60;;
28772;SDS011;15925;51.222;5.678;2023-03-03T19:26:25;20.60;;;5.80;;
28772;SDS011;15925;51.222;5.678;2023-03-03T19:31:28;12.87;;;4.37;;
28772;SDS011;15925;51.222;5.678;2023-03-03T19:34:12;8.65;;;4.47;;
28772;SDS011;15925;51.222;5.678;2023-03-03T19:36:56;19.02;;;6.93;;
28772;SDS011;15925;51.222;5.678;2023-03-03T19:39:50;9.27;;;5.18;;
28772;SDS011;15925;51.222;5.678;2023-03-03T19:42:32;14.40;;;4.55;;
28772;SDS011;15925;51.222;5.678;2023-03-03T19:47:50;32.85;;;5.15;;
28772;SDS011;15925;51.222;5.678;2023-03-03T19:53:21;10.45;;;3.65;;
28772;SDS011;15925;51.222;5.678;2023-03-03T20:01:58;6.18;;;2.90;;
28772;SDS011;15925;51.222;5.678;2023-03-03T20:07:33;1.48;;;1.35;;
28772;SDS011;15925;51.222;5.678;2023-03-03T20:10:36;5.88;;;1.73;;
28772;SDS011;15925;51.222;5.678;2023-03-03T20:13:24;8.13;;;2.28;;
28772;SDS011;15925;51.222;5.678;2023-03-03T20:21:29;3.42;;;1.73;;
28772;SDS011;15925;51.222;5.678;2023-03-03T20:32:38;0.80;;;0.77;;
28772;SDS011;15925;51.222;5.678;2023-03-03T20:35:49;0.63;;;0.50;;
28772;SDS011;15925;51.222;5.678;2023-03-03T20:38:37;1.95;;;0.80;;
28772;SDS011;15925;51.222;5.678;2023-03-03T20:57:50;2.22;;;0.60;;
28772;SDS011;15925;51.222;5.678;2023-03-03T21:02:57;2.40;;;0.60;;
28772;SDS011;15925;51.222;5.678;2023-03-03T21:05:56;2.45;;;0.73;;
28772;SDS011;15925;51.222;5.678;2023-03-03T21:11:15;1.02;;;0.68;;
28772;SDS011;15925;51.222;5.678;2023-03-03T21:13:46;0.93;;;0.57;;
28772;SDS011;15925;51.222;5.678;2023-03-03T21:21:42;2.60;;;0.60;;
28772;SDS011;15925;51.222;5.678;2023-03-03T21:24:11;2.40;;;0.70;;
28772;SDS011;15925;51.222;5.678;2023-03-03T21:26:50;0.47;;;0.38;;
28772;SDS011;15925;51.222;5.678;2023-03-03T21:29:36;3.88;;;0.93;;
28772;SDS011;15925;51.222;5.678;2023-03-03T21:32:03;3.58;;;1.42;;
28772;SDS011;15925;51.222;5.678;2023-03-03T21:34:37;2.22;;;1.17;;
28772;SDS011;15925;51.222;5.678;2023-03-03T21:37:09;4.78;;;0.88;;
28772;SDS011;15925;51.222;5.678;2023-03-03T21:39:40;11.82;;;1.20;;
28772;SDS011;15925;51.222;5.678;2023-03-03T21:42:10;3.70;;;1.27;;
28772;SDS011;15925;51.222;5.678;2023-03-03T21:44:41;4.70;;;0.82;;
28772;SDS011;15925;51.222;5.678;2023-03-03T21:47:12;1.25;;;1.02;;
28772;SDS011;15925;51.222;5.678;2023-03-03T21:49:43;1.83;;;1.00;;
28772;SDS011;15925;51.222;5.678;2023-03-03T21:52:10;3.38;;;1.15;;
28772;SDS011;15925;51.222;5.678;2023-03-03T21:54:37;9.43;;;1.38;;
28772;SDS011;15925;51.222;5.678;2023-03-03T21:57:03;0.75;;;0.57;;
28772;SDS011;15925;51.222;5.678;2023-03-03T21:59:29;3.40;;;1.00;;
28772;SDS011;15925;51.222;5.678;2023-03-03T22:01:55;0.70;;;0.70;;
28772;SDS011;15925;51.222;5.678;2023-03-03T22:04:21;1.30;;;1.10;;